createdAt,value
2024-04-06T00:02:22.886Z,15.54
2024-04-06T00:04:58.371Z,15.51
2024-04-06T00:07:30.231Z,15.47
2024-04-06T00:10:01.088Z,15.44
2024-04-06T00:12:33.033Z,15.40
2024-04-06T00:15:03.933Z,15.38
2024-04-06T00:17:37.074Z,15.36
2024-04-06T00:20:08.298Z,15.34
2024-04-06T00:22:39.970Z,15.31
2024-04-06T00:25:15.807Z,15.24
2024-04-06T00:27:46.543Z,15.20
2024-04-06T00:30:18.006Z,15.16
2024-04-06T00:32:48.421Z,15.12
2024-04-06T00:35:19.890Z,15.07
2024-04-06T00:37:50.507Z,15.01
2024-04-06T00:40:22.668Z,14.97
2024-04-06T00:42:53.210Z,14.98
2024-04-06T00:45:24.855Z,15.00
2024-04-06T00:47:55.590Z,15.00
2024-04-06T00:50:27.400Z,14.99
2024-04-06T00:52:57.978Z,14.95
2024-04-06T00:55:30.004Z,14.92
2024-04-06T00:58:00.372Z,14.88
2024-04-06T01:00:32.148Z,14.86
2024-04-06T01:03:02.659Z,14.86
2024-04-06T01:05:34.522Z,14.87
2024-04-06T01:08:05.344Z,14.89
2024-04-06T01:10:36.903Z,14.91
2024-04-06T01:13:07.638Z,14.94
2024-04-06T01:15:39.404Z,14.96
2024-04-06T01:18:10.127Z,14.99
2024-04-06T01:20:45.167Z,15.03
2024-04-06T01:23:17.939Z,15.08
2024-04-06T01:25:48.479Z,15.14
2024-04-06T01:28:20.137Z,15.19
2024-04-06T01:30:50.464Z,15.26
2024-04-06T01:33:22.315Z,15.32
2024-04-06T01:35:52.636Z,15.37
2024-04-06T01:38:24.363Z,15.41
2024-04-06T01:40:54.827Z,15.43
2024-04-06T01:43:27.284Z,15.45
2024-04-06T01:45:57.731Z,15.47
2024-04-06T01:48:29.184Z,15.48
2024-04-06T01:51:00.115Z,15.48
2024-04-06T01:53:31.918Z,15.48
2024-04-06T01:56:02.408Z,15.48
2024-04-06T01:58:33.755Z,15.47
2024-04-06T02:01:04.787Z,15.47
2024-04-06T02:03:36.550Z,15.45
2024-04-06T02:06:10.669Z,15.43
2024-04-06T02:08:42.215Z,15.41
2024-04-06T02:11:12.746Z,15.40
2024-04-06T02:13:45.327Z,15.37
2024-04-06T02:16:17.833Z,15.34
2024-04-06T02:18:49.446Z,15.28
2024-04-06T02:21:20.088Z,15.24
2024-04-06T02:23:51.641Z,15.21
2024-04-06T02:26:22.293Z,15.20
2024-04-06T02:28:53.819Z,15.18
2024-04-06T02:31:24.549Z,15.16
2024-04-06T02:33:56.104Z,15.13
2024-04-06T02:36:26.736Z,15.09
2024-04-06T02:38:58.385Z,15.05
2024-04-06T02:41:28.932Z,15.02
2024-04-06T02:44:00.873Z,14.98
2024-04-06T02:46:31.203Z,14.93
2024-04-06T02:49:03.271Z,14.90
2024-04-06T02:51:33.693Z,14.87
2024-04-06T02:54:05.756Z,14.83
2024-04-06T02:56:36.086Z,14.81
2024-04-06T02:59:08.455Z,14.78
2024-04-06T03:01:40.032Z,14.78
2024-04-06T03:04:11.664Z,14.76
2024-04-06T03:06:42.195Z,14.73
2024-04-06T03:09:14.456Z,14.71
2024-04-06T03:11:44.780Z,14.68
2024-04-06T03:14:16.243Z,14.64
2024-04-06T03:16:47.388Z,14.62
2024-04-06T03:19:19.145Z,14.59
2024-04-06T03:21:49.570Z,14.57
2024-04-06T03:24:21.218Z,14.56
2024-04-06T03:26:52.373Z,14.55
2024-04-06T03:29:24.125Z,14.54
2024-04-06T03:31:54.344Z,14.52
2024-04-06T03:34:26.524Z,14.49
2024-04-06T03:36:56.937Z,14.45
2024-04-06T03:39:28.697Z,14.40
2024-04-06T03:41:59.120Z,14.38
2024-04-06T03:44:30.913Z,14.33
2024-04-06T03:47:01.093Z,14.29
2024-04-06T03:49:32.654Z,14.23
2024-04-06T03:52:03.597Z,14.17
2024-04-06T03:54:35.353Z,14.11
2024-04-06T03:57:05.683Z,14.04
2024-04-06T03:59:37.549Z,13.95
2024-04-06T04:02:07.759Z,13.85
2024-04-06T04:04:39.824Z,13.77
2024-04-06T04:07:10.143Z,13.68
2024-04-06T04:09:41.799Z,13.60
2024-04-06T04:12:12.133Z,13.56
2024-04-06T04:14:43.700Z,13.54
2024-04-06T04:17:14.407Z,13.51
2024-04-06T04:19:46.368Z,13.49
2024-04-06T04:22:16.808Z,13.48
2024-04-06T04:24:48.272Z,13.46
2024-04-06T04:27:19.710Z,13.45
2024-04-06T04:29:52.193Z,13.44
2024-04-06T04:32:22.703Z,13.40
2024-04-06T04:34:54.572Z,13.38
2024-04-06T04:37:25.005Z,13.36
2024-04-06T04:39:56.851Z,13.32
2024-04-06T04:42:27.281Z,13.27
2024-04-06T04:45:00.877Z,13.23
2024-04-06T04:47:31.365Z,13.20
2024-04-06T04:50:04.467Z,13.17
2024-04-06T04:52:35.241Z,13.15
2024-04-06T04:55:07.410Z,13.14
2024-04-06T04:57:37.927Z,13.14
2024-04-06T05:00:11.065Z,13.19
2024-04-06T05:02:41.349Z,13.23
2024-04-06T05:05:13.209Z,13.27
2024-04-06T05:07:44.244Z,13.32
2024-04-06T05:10:16.014Z,13.37
2024-04-06T05:12:46.328Z,13.44
2024-04-06T05:15:17.782Z,13.51
2024-04-06T05:17:48.315Z,13.59
2024-04-06T05:20:19.759Z,13.65
2024-04-06T05:22:50.655Z,13.70
2024-04-06T05:25:22.246Z,13.75
2024-04-06T05:27:52.790Z,13.82
2024-04-06T05:30:24.228Z,13.87
2024-04-06T05:32:54.762Z,13.94
2024-04-06T05:35:26.208Z,14.04
2024-04-06T05:37:56.750Z,14.14
2024-04-06T05:40:28.291Z,14.27
2024-04-06T05:42:58.823Z,14.46
2024-04-06T05:45:30.366Z,14.64
2024-04-06T05:48:06.945Z,14.86
2024-04-06T05:50:39.401Z,15.16
2024-04-06T05:53:09.834Z,15.56
2024-04-06T05:55:41.399Z,15.96
2024-04-06T05:58:11.818Z,16.43
2024-04-06T06:00:43.489Z,16.87
2024-04-06T06:03:14.025Z,17.30
2024-04-06T06:05:45.757Z,17.78
2024-04-06T06:08:16.715Z,18.19
2024-04-06T06:10:48.471Z,18.57
2024-04-06T06:13:18.899Z,18.92
2024-04-06T06:15:50.851Z,19.20
2024-04-06T06:18:21.382Z,19.47
2024-04-06T06:20:53.033Z,19.74
2024-04-06T06:23:23.573Z,20.13
2024-04-06T06:25:55.114Z,20.57
2024-04-06T06:28:25.781Z,21.07
2024-04-06T06:30:57.618Z,21.59
2024-04-06T06:33:28.453Z,22.11
2024-04-06T06:40:41.010Z,22.93
2024-04-06T06:41:27.373Z,23.24
2024-04-06T06:43:57.690Z,23.47
2024-04-06T06:46:29.761Z,23.76
2024-04-06T06:49:00.415Z,23.98
2024-04-06T06:51:32.761Z,24.21
2024-04-06T06:54:04.140Z,24.59
2024-04-06T06:56:35.876Z,24.94
2024-04-06T06:59:06.295Z,25.22
2024-04-06T07:01:39.767Z,25.34
2024-04-06T07:04:10.997Z,25.39
2024-04-06T07:09:18.766Z,25.55
2024-04-06T07:11:49.079Z,25.64
2024-04-06T07:14:20.741Z,25.93
2024-04-06T07:16:51.056Z,26.30
2024-04-06T07:19:23.030Z,26.42
2024-04-06T07:21:53.342Z,26.08
2024-04-06T07:24:25.311Z,25.67
2024-04-06T07:26:55.533Z,25.62
2024-04-06T07:29:27.394Z,25.43
2024-04-06T07:31:57.621Z,25.14
2024-04-06T07:34:29.682Z,25.42
2024-04-06T07:36:59.794Z,26.08
2024-04-06T07:39:31.759Z,27.08
2024-04-06T07:42:02.083Z,27.87
2024-04-06T07:44:33.842Z,28.19
2024-04-06T07:47:04.670Z,28.00
2024-04-06T07:49:36.647Z,27.60
2024-04-06T07:52:07.277Z,27.27
2024-04-06T07:54:39.229Z,26.99
2024-04-06T07:57:09.759Z,26.98
2024-04-06T07:59:42.644Z,27.01
2024-04-06T08:02:13.602Z,27.21
2024-04-06T08:04:46.274Z,27.53
2024-04-06T08:07:16.726Z,27.68
2024-04-06T08:09:48.453Z,27.93
2024-04-06T08:12:18.979Z,28.36
2024-04-06T08:14:50.861Z,28.83
2024-04-06T08:17:21.571Z,29.84
2024-04-06T08:19:53.455Z,30.92
2024-04-06T08:22:23.952Z,31.47
2024-04-06T08:24:56.134Z,31.50
2024-04-06T08:27:26.960Z,31.15
2024-04-06T08:29:58.725Z,31.10
2024-04-06T08:32:29.898Z,31.87
2024-04-06T08:35:01.831Z,32.80
2024-04-06T08:37:32.260Z,33.71
2024-04-06T08:40:03.928Z,34.42
2024-04-06T08:42:45.396Z,34.59
2024-04-06T08:45:17.670Z,34.82
2024-04-06T08:47:48.087Z,35.06
2024-04-06T08:50:21.282Z,35.04
2024-04-06T08:52:55.399Z,35.28
2024-04-06T08:55:25.728Z,36.19
2024-04-06T08:57:57.575Z,37.17
2024-04-06T09:00:28.537Z,37.81
2024-04-06T09:03:00.282Z,38.31
2024-04-06T09:05:30.922Z,38.51
2024-04-06T09:08:02.459Z,38.62
2024-04-06T09:10:33.292Z,38.67
2024-04-06T09:13:04.964Z,38.40
2024-04-06T09:15:36.631Z,37.70
2024-04-06T09:18:08.676Z,36.44
2024-04-06T09:20:39.092Z,35.30
2024-04-06T09:23:10.648Z,34.60
2024-04-06T09:25:41.703Z,34.24
2024-04-06T09:28:14.932Z,34.89
2024-04-06T09:30:45.517Z,35.04
2024-04-06T09:33:16.970Z,35.62
2024-04-06T09:35:47.696Z,35.73
2024-04-06T09:38:20.718Z,35.15
2024-04-06T09:40:52.340Z,34.25
2024-04-06T09:43:25.018Z,33.95
2024-04-06T09:45:55.442Z,34.43
2024-04-06T09:48:27.000Z,35.06
2024-04-06T09:50:58.290Z,36.64
2024-04-06T09:53:30.209Z,38.28
2024-04-06T09:56:00.833Z,39.54
2024-04-06T09:58:34.748Z,40.22
2024-04-06T10:01:13.218Z,41.00
2024-04-06T10:03:46.953Z,41.29
2024-04-06T10:06:18.315Z,41.50
2024-04-06T10:08:53.616Z,41.94
2024-04-06T10:11:25.928Z,42.56
2024-04-06T10:14:00.195Z,42.99
2024-04-06T10:16:33.638Z,43.34
2024-04-06T10:19:04.027Z,43.69
2024-04-06T10:21:36.743Z,43.78
2024-04-06T10:24:13.907Z,43.56
2024-04-06T10:26:50.705Z,42.56
2024-04-06T10:29:22.357Z,41.27
2024-04-06T10:31:52.927Z,40.08
2024-04-06T10:34:27.400Z,39.03
2024-04-06T10:37:02.960Z,37.97
2024-04-06T10:39:33.384Z,36.57
2024-04-06T10:42:08.423Z,34.99
2024-04-06T10:44:41.515Z,33.55
2024-04-06T10:47:12.453Z,32.13
2024-04-06T10:49:47.810Z,31.03
2024-04-06T10:52:20.111Z,30.03
2024-04-06T10:54:50.936Z,29.19
2024-04-06T10:57:23.843Z,28.56
2024-04-06T10:59:54.104Z,28.14
2024-04-06T11:02:26.071Z,27.71
2024-04-06T11:04:57.959Z,27.28
2024-04-06T11:07:30.109Z,26.92
2024-04-06T11:10:00.522Z,26.55
2024-04-06T11:12:33.424Z,26.17
2024-04-06T11:15:05.377Z,25.75
2024-04-06T11:17:37.032Z,25.36
2024-04-06T11:20:08.302Z,25.04
2024-04-06T11:22:40.442Z,24.79
2024-04-06T11:25:17.172Z,24.51
2024-04-06T11:27:49.483Z,24.26
2024-04-06T11:30:20.699Z,24.06
2024-04-06T11:32:53.408Z,23.85
2024-04-06T11:35:23.840Z,23.65
2024-04-06T11:37:55.280Z,23.44
2024-04-06T11:40:26.022Z,23.23
2024-04-06T11:42:57.462Z,23.12
2024-04-06T11:45:28.211Z,23.05
2024-04-06T11:47:59.960Z,23.00
2024-04-06T11:50:30.391Z,23.01
2024-04-06T11:53:02.046Z,23.00
2024-04-06T11:55:32.770Z,22.99
2024-04-06T11:58:05.458Z,23.02
2024-04-06T12:00:35.792Z,23.08
2024-04-06T12:03:07.706Z,23.08
2024-04-06T12:05:38.179Z,23.01
2024-04-06T12:08:09.826Z,22.94
2024-04-06T12:10:40.597Z,22.88
2024-04-06T12:13:12.418Z,22.93
2024-04-06T12:15:42.840Z,23.01
2024-04-06T12:18:14.600Z,23.09
2024-04-06T12:20:45.337Z,23.16
2024-04-06T12:23:17.009Z,23.25
2024-04-06T12:25:47.618Z,23.43
2024-04-06T12:28:19.813Z,23.65
2024-04-06T12:30:50.422Z,23.88
2024-04-06T12:33:22.182Z,24.11
2024-04-06T12:35:53.664Z,24.33
2024-04-06T12:38:25.486Z,24.48
2024-04-06T12:40:56.631Z,24.62
2024-04-06T12:43:28.495Z,24.78
2024-04-06T12:45:58.919Z,25.07
2024-04-06T12:48:30.807Z,25.53
2024-04-06T12:51:02.447Z,26.23
2024-04-06T12:53:34.196Z,26.82
2024-04-06T12:56:05.034Z,27.19
2024-04-06T12:58:36.588Z,27.47
2024-04-06T13:01:06.921Z,28.18
2024-04-06T13:03:49.193Z,28.77
2024-04-06T13:06:28.447Z,28.45
2024-04-06T13:08:58.867Z,28.37
2024-04-06T13:11:30.524Z,29.39
2024-04-06T13:14:01.256Z,30.64
2024-04-06T13:16:33.230Z,31.56
2024-04-06T13:19:04.271Z,32.43
2024-04-06T13:21:36.034Z,33.13
2024-04-06T13:24:06.915Z,32.88
2024-04-06T13:26:39.128Z,33.06
2024-04-06T13:29:10.617Z,33.45
2024-04-06T13:31:42.542Z,33.60
2024-04-06T13:34:12.959Z,33.59
2024-04-06T13:36:44.715Z,33.55
2024-04-06T13:39:14.943Z,33.52
2024-04-06T13:41:48.289Z,33.53
2024-04-06T13:44:18.461Z,33.54
2024-04-06T13:46:50.427Z,33.49
2024-04-06T13:49:20.972Z,33.52
2024-04-06T13:51:52.811Z,33.52
2024-04-06T13:54:23.029Z,33.50
2024-04-06T13:56:54.789Z,33.40
2024-04-06T13:59:25.014Z,33.32
2024-04-06T14:01:57.183Z,33.34
2024-04-06T14:04:27.728Z,33.33
2024-04-06T14:06:59.372Z,33.40
2024-04-06T14:09:30.828Z,33.33
2024-04-06T14:12:05.246Z,33.20
2024-04-06T14:14:37.918Z,33.06
2024-04-06T14:17:08.492Z,32.99
2024-04-06T14:19:41.015Z,32.81
2024-04-06T14:22:11.444Z,32.58
2024-04-06T14:24:43.108Z,32.41
2024-04-06T14:27:13.641Z,32.29
2024-04-06T14:29:45.602Z,32.12
2024-04-06T14:32:16.238Z,31.70
2024-04-06T14:34:48.201Z,31.23
2024-04-06T14:37:18.867Z,30.95
2024-04-06T14:39:51.103Z,30.87
2024-04-06T14:42:21.521Z,30.80
2024-04-06T14:44:53.375Z,30.72
2024-04-06T14:47:24.023Z,30.66
2024-04-06T14:49:55.763Z,30.54
2024-04-06T14:52:26.239Z,30.29
2024-04-06T14:54:59.793Z,30.01
2024-04-06T14:57:30.321Z,29.66
2024-04-06T15:00:05.989Z,29.31
2024-04-06T15:02:37.525Z,29.03
2024-04-06T15:05:09.090Z,28.74
2024-04-06T15:07:40.554Z,28.46
2024-04-06T15:10:11.173Z,28.34
2024-04-06T15:12:42.710Z,28.22
2024-04-06T15:15:13.442Z,28.02
2024-04-06T15:17:44.898Z,27.82
2024-04-06T15:20:15.423Z,27.65
2024-04-06T15:22:47.190Z,27.55
2024-04-06T15:25:19.161Z,27.44
2024-04-06T15:27:51.001Z,27.33
2024-04-06T15:30:21.426Z,27.25
2024-04-06T15:32:53.093Z,27.16
2024-04-06T15:35:24.135Z,26.96
2024-04-06T15:37:55.791Z,26.75
2024-04-06T15:40:26.579Z,26.45
2024-04-06T15:42:58.487Z,26.10
2024-04-06T15:45:29.021Z,25.90
2024-04-06T15:48:01.685Z,25.77
2024-04-06T15:50:32.633Z,25.63
2024-04-06T15:53:04.794Z,25.41
2024-04-06T15:55:36.350Z,25.12
2024-04-06T15:58:08.318Z,24.78
2024-04-06T16:00:38.841Z,24.46
2024-04-06T16:03:11.112Z,24.16
2024-04-06T16:05:41.532Z,23.88
2024-04-06T16:08:13.308Z,23.68
2024-04-06T16:10:44.046Z,23.54
2024-04-06T16:13:15.901Z,23.42
2024-04-06T16:15:46.411Z,23.32
2024-04-06T16:18:18.079Z,23.20
2024-04-06T16:20:48.700Z,23.10
2024-04-06T16:23:20.357Z,22.95
2024-04-06T16:25:50.677Z,22.71
2024-04-06T16:28:22.564Z,22.47
2024-04-06T16:30:54.402Z,22.27
2024-04-06T16:33:29.335Z,22.13
2024-04-06T16:36:02.011Z,22.01
2024-04-06T16:38:32.645Z,21.90
2024-04-06T16:41:04.496Z,21.84
2024-04-06T16:43:34.826Z,21.78
2024-04-06T16:46:06.479Z,21.69
2024-04-06T16:48:37.010Z,21.56
2024-04-06T16:51:09.906Z,21.43
2024-04-06T16:53:42.271Z,21.32
2024-04-06T16:56:14.029Z,21.22
2024-04-06T16:58:45.360Z,21.13
2024-04-06T17:01:17.033Z,21.05
2024-04-06T17:03:47.967Z,20.96
2024-04-06T17:06:19.631Z,20.83
2024-04-06T17:08:51.282Z,20.70
2024-04-06T17:11:22.840Z,20.57
2024-04-06T17:13:53.371Z,20.46
2024-04-06T17:16:25.313Z,20.32
2024-04-06T17:18:56.673Z,20.13
2024-04-06T17:21:28.326Z,19.97
2024-04-06T17:23:58.855Z,19.82
2024-04-06T17:26:30.614Z,19.67
2024-04-06T17:29:01.107Z,19.55
2024-04-06T17:31:32.751Z,19.44
2024-04-06T17:34:03.437Z,19.33
2024-04-06T17:36:35.305Z,19.22
2024-04-06T17:39:06.590Z,19.13
2024-04-06T17:41:39.609Z,19.03
2024-04-06T17:44:10.922Z,18.86
2024-04-06T17:46:43.244Z,18.71
2024-04-06T17:49:13.671Z,18.56
2024-04-06T17:51:45.740Z,18.46
2024-04-06T17:54:16.470Z,18.36
2024-04-06T17:56:48.345Z,18.26
2024-04-06T17:59:18.668Z,18.20
2024-04-06T18:01:50.524Z,18.13
2024-04-06T18:04:20.841Z,18.05
2024-04-06T18:06:52.718Z,17.95
2024-04-06T18:09:24.164Z,17.85
2024-04-06T18:11:56.855Z,17.74
2024-04-06T18:14:29.094Z,17.62
2024-04-06T18:17:01.366Z,17.48
2024-04-06T18:19:32.229Z,17.33
2024-04-06T18:22:04.779Z,17.18
2024-04-06T18:24:35.618Z,17.05
2024-04-06T18:27:07.066Z,16.93
2024-04-06T18:29:37.907Z,16.82
2024-04-06T18:32:09.657Z,16.73
2024-04-06T18:34:43.674Z,16.63
2024-04-06T18:37:15.947Z,16.54
2024-04-06T18:39:50.360Z,16.46
2024-04-06T18:42:22.528Z,16.38
2024-04-06T18:44:53.058Z,16.32
2024-04-06T18:47:24.613Z,16.25
2024-04-06T18:49:55.460Z,16.19
2024-04-06T18:52:27.112Z,16.11
2024-04-06T18:54:57.630Z,16.02
2024-04-06T18:57:29.073Z,15.93
2024-04-06T18:59:59.611Z,15.87
2024-04-06T19:02:31.178Z,15.80
2024-04-06T19:05:01.795Z,15.74
2024-04-06T19:07:33.279Z,15.67
2024-04-06T19:10:03.987Z,15.61
2024-04-06T19:12:35.439Z,15.59
2024-04-06T19:15:07.504Z,15.60
2024-04-06T19:17:39.046Z,15.61
2024-04-06T19:20:13.232Z,15.59
2024-04-06T19:22:44.913Z,15.56
2024-04-06T19:25:15.441Z,15.52
2024-04-06T19:27:47.208Z,15.49
2024-04-06T19:30:17.626Z,15.44
2024-04-06T19:32:49.431Z,15.36
2024-04-06T19:35:20.131Z,15.29
2024-04-06T19:37:51.889Z,15.24
2024-04-06T19:40:22.321Z,15.22
2024-04-06T19:42:53.960Z,15.23
2024-04-06T19:45:24.394Z,15.27
2024-04-06T19:47:55.949Z,15.31
2024-04-06T19:50:26.507Z,15.33
2024-04-06T19:52:58.127Z,15.32
2024-04-06T19:55:29.504Z,15.30
2024-04-06T19:58:01.542Z,15.27
2024-04-06T20:00:31.869Z,15.23
2024-04-06T20:03:05.193Z,15.15
2024-04-06T20:05:36.722Z,15.04
2024-04-06T20:08:10.324Z,14.94
2024-04-06T20:10:41.449Z,14.87
2024-04-06T20:13:13.209Z,14.79
2024-04-06T20:15:43.759Z,14.69
2024-04-06T20:18:17.866Z,14.60
2024-04-06T20:20:48.075Z,14.55
2024-04-06T20:23:38.473Z,14.51
2024-04-06T20:26:15.151Z,14.45
2024-04-06T20:28:47.015Z,14.40
2024-04-06T20:33:49.500Z,14.28
2024-04-06T20:36:20.128Z,14.25
2024-04-06T20:38:52.607Z,14.22
2024-04-06T20:41:23.136Z,14.20
2024-04-06T20:43:54.692Z,14.19
2024-04-06T20:46:25.519Z,14.18
2024-04-06T20:48:56.966Z,14.17
2024-04-06T20:51:27.502Z,14.16
2024-04-06T20:53:58.953Z,14.16
2024-04-06T20:56:29.479Z,14.17
2024-04-06T20:59:00.928Z,14.18
2024-04-06T21:01:31.571Z,14.17
2024-04-06T21:04:04.756Z,14.16
2024-04-06T21:06:35.384Z,14.16
2024-04-06T21:09:07.565Z,14.13
2024-04-06T21:11:38.185Z,14.08
2024-04-06T21:14:09.631Z,14.04
2024-04-06T21:16:40.281Z,13.99
2024-04-06T21:19:11.713Z,13.97
2024-04-06T21:21:44.803Z,13.95
2024-04-06T21:24:16.659Z,13.92
2024-04-06T21:26:47.747Z,13.88
2024-04-06T21:29:19.966Z,13.85
2024-04-06T21:31:51.015Z,13.84
2024-04-06T21:34:22.680Z,13.83
2024-04-06T21:36:54.158Z,13.82
2024-04-06T21:39:25.776Z,13.81
2024-04-06T21:41:56.513Z,13.77
2024-04-06T21:44:29.205Z,13.72
2024-04-06T21:46:59.820Z,13.67
2024-04-06T21:49:31.588Z,13.66
2024-04-06T21:52:01.997Z,13.63
2024-04-06T21:54:33.757Z,13.59
2024-04-06T21:57:04.427Z,13.56
2024-04-06T21:59:36.768Z,13.50
2024-04-06T22:02:10.458Z,13.46
2024-04-06T22:04:42.474Z,13.40
2024-04-06T22:07:14.042Z,13.34
2024-04-06T22:09:46.161Z,13.25
2024-04-06T22:12:16.266Z,13.20
2024-04-06T22:14:48.233Z,13.15
2024-04-06T22:17:18.870Z,13.12
2024-04-06T22:19:50.727Z,13.11
2024-04-06T22:22:21.151Z,13.09
2024-04-06T22:24:52.808Z,13.10
2024-04-06T22:27:23.233Z,13.09
2024-04-06T22:29:55.199Z,13.04
2024-04-06T22:32:25.419Z,12.97
2024-04-06T22:34:57.082Z,12.92
2024-04-06T22:37:32.005Z,12.92
2024-04-06T22:40:04.789Z,12.95
2024-04-06T22:42:35.318Z,12.99
2024-04-06T22:45:07.382Z,13.03
2024-04-06T22:47:37.597Z,13.07
2024-04-06T22:50:09.871Z,13.10
2024-04-06T22:52:40.218Z,13.12
2024-04-06T22:55:12.062Z,13.08
2024-04-06T22:57:42.794Z,13.04
2024-04-06T23:00:15.573Z,13.01
2024-04-06T23:02:46.033Z,12.99
2024-04-06T23:05:18.478Z,13.02
2024-04-06T23:07:48.909Z,13.08
2024-04-06T23:10:20.661Z,13.09
2024-04-06T23:12:51.807Z,13.05
2024-04-06T23:15:23.488Z,12.99
2024-04-06T23:17:54.083Z,12.89
2024-04-06T23:20:25.847Z,12.79
2024-04-06T23:22:56.269Z,12.72
2024-04-06T23:25:28.024Z,12.68
2024-04-06T23:27:58.368Z,12.64
2024-04-06T23:30:30.004Z,12.61
2024-04-06T23:33:00.534Z,12.59
2024-04-06T23:35:32.200Z,12.57
2024-04-06T23:38:02.840Z,12.55
2024-04-06T23:40:40.736Z,12.52
2024-04-06T23:43:12.485Z,12.50
2024-04-06T23:45:42.924Z,12.45
2024-04-06T23:48:15.186Z,12.39
2024-04-06T23:50:56.057Z,12.31
2024-04-06T23:53:28.113Z,12.25
2024-04-06T23:55:58.540Z,12.23
2024-04-06T23:58:29.996Z,12.22
